Time;durP1;ratioP1;P1;durP2;ratioP2;P2;SDS_P1;SDS_P2;PMS_P1;PMS_P2;Temp;Humidity;BMP_temperature;BMP_pressure;BME280_temperature;BME280_humidity;BME280_pressure;Samples;Min_cycle;Max_cycle;Signal;HPM_P1;HPM_P2
2022/11/28 00:01:39;;;;;;;28.43;17.33;;;5.90;99.90;;;;;;5071551;28;20208;-71
2022/11/28 00:04:09;;;;;;;32.00;20.20;;;5.90;99.90;;;;;;5071779;28;20207;-68
2022/11/28 00:06:38;;;;;;;35.17;23.93;;;6.00;99.90;;;;;;5097385;28;20263;-67
2022/11/28 00:09:09;;;;;;;43.13;25.80;;;6.00;99.90;;;;;;5093139;28;20200;-67
2022/11/28 00:11:39;;;;;;;41.37;25.43;;;6.00;99.90;;;;;;5112103;28;20359;-67
2022/11/28 00:14:08;;;;;;;46.50;28.80;;;6.00;99.90;;;;;;5112069;28;20215;-70
2022/11/28 00:16:37;;;;;;;45.67;29.20;;;5.90;99.90;;;;;;5112098;28;20191;-68
2022/11/28 00:19:06;;;;;;;46.90;27.57;;;6.00;99.90;;;;;;5112696;28;20260;-69
2022/11/28 00:21:35;;;;;;;45.20;27.13;;;6.00;99.90;;;;;;5112639;28;20203;-67
2022/11/28 00:24:04;;;;;;;43.57;25.97;;;6.00;99.90;;;;;;5112834;28;20203;-71
2022/11/28 00:26:36;;;;;;;58.53;32.77;;;6.00;99.90;;;;;;5112442;28;20196;-72
2022/11/28 00:29:06;;;;;;;62.13;37.60;;;6.00;99.90;;;;;;5112630;28;20245;-71
2022/11/28 00:31:40;;;;;;;78.10;43.73;;;6.00;99.90;;;;;;5112563;28;20199;-67
2022/11/28 00:34:10;;;;;;;72.87;42.63;;;6.00;99.90;;;;;;5112166;28;20246;-69
2022/11/28 00:36:38;;;;;;;70.03;39.73;;;6.00;99.90;;;;;;5112290;28;20728;-68
2022/11/28 00:39:07;;;;;;;73.30;39.43;;;6.00;99.90;;;;;;5112442;28;20226;-70
2022/11/28 00:41:36;;;;;;;70.90;41.40;;;6.00;99.90;;;;;;5112394;28;20201;-69
2022/11/28 00:44:05;;;;;;;80.33;44.77;;;6.00;99.90;;;;;;5112280;28;20222;-69
2022/11/28 00:46:33;;;;;;;73.10;40.73;;;5.90;99.90;;;;;;5112293;28;20198;-70
2022/11/28 00:49:02;;;;;;;70.53;41.37;;;5.90;99.90;;;;;;5112144;28;20191;-70
2022/11/28 00:51:32;;;;;;;66.50;39.40;;;5.90;99.90;;;;;;5112254;28;20207;-68
2022/11/28 00:54:04;;;;;;;66.57;38.37;;;5.90;99.90;;;;;;5112052;28;20230;-70
2022/11/28 00:56:36;;;;;;;66.57;39.27;;;5.80;99.90;;;;;;5111926;28;20214;-71
2022/11/28 00:59:06;;;;;;;71.57;41.33;;;5.80;99.90;;;;;;5112157;28;20230;-70
2022/11/28 01:01:37;;;;;;;75.50;43.00;;;5.70;99.90;;;;;;5112095;28;20191;-73
2022/11/28 01:04:07;;;;;;;70.30;42.17;;;5.80;99.90;;;;;;5112284;28;20205;-69
2022/11/28 01:06:38;;;;;;;69.30;41.00;;;5.80;99.90;;;;;;5111851;28;20238;-70
2022/11/28 01:09:09;;;;;;;65.27;40.17;;;5.80;99.90;;;;;;5112022;28;20251;-67
2022/11/28 01:11:40;;;;;;;68.13;38.90;;;5.90;99.90;;;;;;5112110;28;20606;-68
2022/11/28 01:14:09;;;;;;;59.60;37.50;;;5.90;99.90;;;;;;5112019;28;20680;-67
2022/11/28 01:16:38;;;;;;;53.67;34.27;;;5.90;99.90;;;;;;5112052;28;20205;-67
2022/11/28 01:19:07;;;;;;;53.03;32.80;;;6.00;99.90;;;;;;5111938;28;20203;-68
2022/11/28 01:21:35;;;;;;;44.57;27.97;;;6.00;99.90;;;;;;5111662;28;20660;-68
2022/11/28 01:24:04;;;;;;;44.70;27.07;;;6.00;99.90;;;;;;5112057;28;20195;-71
2022/11/28 01:26:33;;;;;;;43.20;27.43;;;6.00;99.90;;;;;;5111761;28;20682;-68
2022/11/28 01:29:03;;;;;;;43.30;28.13;;;5.90;99.90;;;;;;5111950;28;20199;-68
2022/11/28 01:31:31;;;;;;;43.33;27.73;;;5.90;99.90;;;;;;5111735;28;20562;-67
2022/11/28 01:33:59;;;;;;;49.80;30.40;;;5.90;99.90;;;;;;5111813;28;20230;-69
2022/11/28 01:36:28;;;;;;;54.17;33.27;;;5.90;99.90;;;;;;5111966;28;20202;-68
2022/11/28 01:38:57;;;;;;;58.63;35.00;;;5.80;99.90;;;;;;5111687;28;20712;-69
2022/11/28 01:41:26;;;;;;;52.17;33.03;;;5.80;99.90;;;;;;5111684;28;20195;-67
2022/11/28 01:44:00;;;;;;;55.47;35.27;;;5.80;99.90;;;;;;5111879;28;20206;-67
2022/11/28 01:46:30;;;;;;;55.23;33.43;;;5.80;99.90;;;;;;5111805;28;20222;-68
2022/11/28 01:49:04;;;;;;;54.13;33.07;;;5.90;99.90;;;;;;5113180;28;20680;-67
2022/11/28 01:51:33;;;;;;;56.27;34.53;;;5.90;99.90;;;;;;5115696;28;20199;-69
2022/11/28 01:54:02;;;;;;;54.87;33.53;;;5.90;99.90;;;;;;5115474;28;20308;-68
2022/11/28 01:56:41;;;;;;;55.60;34.93;;;5.90;99.90;;;;;;5115689;28;20574;-67
2022/11/28 01:59:11;;;;;;;69.00;39.47;;;5.90;99.90;;;;;;5115507;28;20683;-67
2022/11/28 02:01:42;;;;;;;53.57;34.73;;;5.90;99.90;;;;;;5115736;28;20196;-69
2022/11/28 02:04:13;;;;;;;57.20;35.33;;;5.90;99.90;;;;;;5115366;28;20196;-68
2022/11/28 02:06:42;;;;;;;57.27;34.27;;;5.90;99.90;;;;;;5115278;28;20255;-67
2022/11/28 02:09:11;;;;;;;56.40;31.80;;;5.90;99.90;;;;;;5115405;28;20196;-68
2022/11/28 02:12:04;;;;;;;54.73;31.50;;;5.90;99.90;;;;;;5115558;28;20199;-68
2022/11/28 02:14:53;;;;;;;53.30;33.57;;;5.90;99.90;;;;;;5115283;28;20223;-67
2022/11/28 02:17:32;;;;;;;56.93;33.07;;;5.90;99.90;;;;;;5115132;28;20672;-67
2022/11/28 02:20:28;;;;;;;57.53;33.33;;;5.90;99.90;;;;;;5115238;28;20638;-68
2022/11/28 02:23:05;;;;;;;59.87;33.50;;;5.90;99.90;;;;;;5115243;28;20222;-68
2022/11/28 02:26:05;;;;;;;52.67;31.37;;;5.90;99.90;;;;;;5114826;28;20238;-67
2022/11/28 02:29:09;;;;;;;57.63;32.93;;;5.90;99.90;;;;;;5114690;28;20215;-67
2022/11/28 02:32:02;;;;;;;54.50;32.87;;;6.00;99.90;;;;;;5115398;28;20222;-67
2022/11/28 02:34:40;;;;;;;52.27;32.37;;;6.00;99.90;;;;;;5115094;28;20227;-67
2022/11/28 02:37:21;;;;;;;61.70;37.17;;;6.00;99.90;;;;;;5114986;28;20294;-66
2022/11/28 02:40:00;;;;;;;56.57;35.10;;;6.00;99.90;;;;;;5096376;28;20203;-67
2022/11/28 02:42:37;;;;;;;56.63;33.00;;;6.00;99.90;;;;;;5114569;28;20199;-72
2022/11/28 02:45:13;;;;;;;56.17;34.00;;;6.10;99.90;;;;;;5114902;28;20203;-71
2022/11/28 02:47:49;;;;;;;57.23;32.63;;;6.10;99.90;;;;;;5114680;28;20199;-67
2022/11/28 02:50:22;;;;;;;55.33;32.30;;;6.10;99.90;;;;;;5114500;28;20202;-68
2022/11/28 02:52:53;;;;;;;51.53;33.00;;;6.10;99.90;;;;;;5114525;28;20183;-66
2022/11/28 02:55:22;;;;;;;56.07;32.53;;;6.10;99.90;;;;;;5114159;28;20638;-68
2022/11/28 02:57:53;;;;;;;51.97;32.03;;;6.10;99.90;;;;;;5114213;28;20198;-67
2022/11/28 03:00:25;;;;;;;52.43;30.30;;;6.10;99.90;;;;;;5114121;28;20208;-68
2022/11/28 03:03:10;;;;;;;42.47;27.77;;;6.10;99.90;;;;;;5114357;28;20196;-70
2022/11/28 03:05:46;;;;;;;40.13;25.70;;;6.10;99.90;;;;;;5114291;28;20231;-68
2022/11/28 03:08:28;;;;;;;41.17;25.97;;;6.00;99.90;;;;;;5114082;28;20623;-67
2022/11/28 03:11:03;;;;;;;39.20;26.40;;;6.00;99.90;;;;;;5114121;28;20614;-66
2022/11/28 03:13:38;;;;;;;41.57;23.70;;;6.00;99.90;;;;;;5113897;28;20233;-67
2022/11/28 03:16:16;;;;;;;38.63;24.47;;;6.00;99.90;;;;;;5113848;28;20218;-70
2022/11/28 03:19:01;;;;;;;43.10;25.07;;;5.90;99.90;;;;;;5114080;28;20188;-66
2022/11/28 03:21:38;;;;;;;41.73;24.60;;;5.90;99.90;;;;;;5113898;28;20196;-67
2022/11/28 03:24:14;;;;;;;39.67;24.60;;;5.90;99.90;;;;;;5113840;28;20227;-67
2022/11/28 03:26:51;;;;;;;43.07;27.80;;;5.90;99.90;;;;;;5113811;28;20204;-67
2022/11/28 03:29:23;;;;;;;39.83;24.60;;;6.00;99.90;;;;;;5113666;28;20211;-67
2022/11/28 03:31:55;;;;;;;45.90;27.37;;;6.00;99.90;;;;;;5113745;28;20205;-67
2022/11/28 03:34:30;;;;;;;49.37;27.90;;;5.90;99.90;;;;;;5113948;28;20685;-67
2022/11/28 03:37:03;;;;;;;48.03;27.90;;;6.00;99.90;;;;;;5113805;28;20206;-71
2022/11/28 03:39:36;;;;;;;41.63;27.53;;;5.90;99.90;;;;;;5113558;28;20230;-69
2022/11/28 03:42:09;;;;;;;46.93;27.73;;;6.00;99.90;;;;;;5113539;28;20294;-72
2022/11/28 03:44:43;;;;;;;52.57;29.40;;;5.90;99.90;;;;;;5113310;28;20627;-73
2022/11/28 03:47:12;;;;;;;54.03;30.97;;;6.00;99.90;;;;;;5113333;28;20213;-73
2022/11/28 03:49:47;;;;;;;50.10;32.53;;;5.90;99.90;;;;;;5113513;28;20220;-74
2022/11/28 03:52:21;;;;;;;48.33;29.87;;;5.90;99.90;;;;;;5113212;28;20227;-73
2022/11/28 03:54:55;;;;;;;48.07;29.97;;;5.90;99.90;;;;;;5113200;28;20203;-73
2022/11/28 03:57:31;;;;;;;45.97;29.83;;;5.90;99.90;;;;;;5112779;28;20658;-70
2022/11/28 04:00:04;;;;;;;50.17;28.27;;;5.90;99.90;;;;;;5113034;28;20731;-69
2022/11/28 04:02:42;;;;;;;43.17;28.30;;;5.90;99.90;;;;;;5113108;28;20192;-72
2022/11/28 04:05:22;;;;;;;47.30;30.23;;;5.90;99.90;;;;;;5113144;28;20204;-71
2022/11/28 04:07:56;;;;;;;56.07;35.57;;;6.00;99.90;;;;;;5113044;28;20210;-72
2022/11/28 04:10:34;;;;;;;53.90;33.27;;;6.00;99.90;;;;;;5112632;28;20633;-73
2022/11/28 04:13:12;;;;;;;52.67;32.60;;;6.00;99.90;;;;;;5112361;28;20289;-72
2022/11/28 04:15:47;;;;;;;55.03;32.60;;;6.00;99.90;;;;;;5112555;28;21033;-72
2022/11/28 04:18:25;;;;;;;62.27;37.07;;;5.90;99.90;;;;;;5112872;28;20205;-72
2022/11/28 04:21:03;;;;;;;69.33;39.10;;;6.00;99.90;;;;;;5112685;28;20310;-65
2022/11/28 04:23:33;;;;;;;64.87;37.47;;;6.00;99.90;;;;;;5112839;28;20210;-68
2022/11/28 04:26:05;;;;;;;55.73;33.27;;;5.90;99.90;;;;;;5112821;28;20298;-68
2022/11/28 04:28:36;;;;;;;45.90;28.80;;;5.90;99.90;;;;;;5112664;28;20815;-67
2022/11/28 04:31:07;;;;;;;52.07;30.27;;;5.90;99.90;;;;;;5112444;28;20744;-67
2022/11/28 04:33:38;;;;;;;51.73;31.00;;;5.90;99.90;;;;;;5112398;28;20223;-69
2022/11/28 04:36:10;;;;;;;47.57;29.87;;;5.90;99.90;;;;;;5112423;28;20343;-69
2022/11/28 04:38:41;;;;;;;43.23;27.43;;;5.90;99.90;;;;;;5112405;28;20716;-68
2022/11/28 04:41:15;;;;;;;45.97;27.77;;;6.00;99.90;;;;;;5112433;28;20255;-68
2022/11/28 04:43:48;;;;;;;47.83;29.77;;;6.00;99.90;;;;;;5112263;28;20205;-68
2022/11/28 04:46:23;;;;;;;42.90;26.97;;;5.90;99.90;;;;;;5112110;28;20229;-67
2022/11/28 04:48:52;;;;;;;46.93;28.90;;;5.90;99.90;;;;;;5112569;28;20192;-67
2022/11/28 04:51:26;;;;;;;50.50;30.07;;;5.90;99.90;;;;;;5112172;28;20661;-67
2022/11/28 04:54:01;;;;;;;49.53;29.87;;;5.90;99.90;;;;;;5112004;28;20199;-66
2022/11/28 04:56:38;;;;;;;48.07;29.23;;;5.90;99.90;;;;;;5112076;28;20583;-70
2022/11/28 04:59:08;;;;;;;49.47;28.23;;;5.90;99.90;;;;;;5112217;28;20621;-67
2022/11/28 05:01:38;;;;;;;51.27;29.90;;;5.80;99.90;;;;;;5112177;28;20299;-70
2022/11/28 05:04:07;;;;;;;45.53;28.77;;;5.80;99.90;;;;;;5112051;28;20253;-66
2022/11/28 05:06:37;;;;;;;44.00;27.37;;;5.80;99.90;;;;;;5111775;28;20220;-67
2022/11/28 05:09:06;;;;;;;38.33;24.37;;;5.80;99.90;;;;;;5111984;28;20213;-68
2022/11/28 05:11:34;;;;;;;32.87;21.47;;;5.90;99.90;;;;;;5111789;28;20213;-68
2022/11/28 05:14:02;;;;;;;36.13;22.23;;;5.80;99.90;;;;;;5112009;28;20206;-65
2022/11/28 05:16:31;;;;;;;35.50;21.17;;;5.70;99.90;;;;;;5111681;28;20215;-68
2022/11/28 05:18:59;;;;;;;42.80;24.53;;;5.70;99.90;;;;;;5111762;28;20200;-66
2022/11/28 05:21:28;;;;;;;39.33;23.47;;;5.60;99.90;;;;;;5111307;28;20673;-64
2022/11/28 05:23:57;;;;;;;40.40;24.30;;;5.60;99.90;;;;;;5114258;28;20250;-66
2022/11/28 05:26:26;;;;;;;37.13;22.83;;;5.60;99.90;;;;;;5115017;28;20278;-65
2022/11/28 05:28:55;;;;;;;42.80;25.10;;;5.60;99.90;;;;;;5115245;28;20206;-69
2022/11/28 05:31:24;;;;;;;40.70;23.60;;;5.60;99.90;;;;;;5115053;28;20207;-65
2022/11/28 05:33:56;;;;;;;42.43;25.23;;;5.60;99.90;;;;;;5114936;28;20206;-65
2022/11/28 05:36:25;;;;;;;37.70;20.93;;;5.50;99.90;;;;;;5114546;28;20249;-65
2022/11/28 05:38:53;;;;;;;31.07;18.07;;;5.30;99.90;;;;;;5114875;28;20266;-67
2022/11/28 05:41:25;;;;;;;31.70;19.07;;;5.30;99.90;;;;;;5114777;28;20625;-69
2022/11/28 05:43:54;;;;;;;32.90;18.40;;;5.30;99.90;;;;;;5114581;28;20671;-67
2022/11/28 05:46:22;;;;;;;31.30;18.23;;;5.20;99.90;;;;;;5114742;28;20202;-66
2022/11/28 05:48:51;;;;;;;32.90;18.37;;;5.20;99.90;;;;;;5115472;28;20691;-66
2022/11/28 05:51:20;;;;;;;27.40;17.03;;;5.30;99.90;;;;;;5115075;28;20195;-65
2022/11/28 05:53:48;;;;;;;27.70;17.83;;;5.30;99.90;;;;;;5115470;28;20574;-68
2022/11/28 05:56:21;;;;;;;29.50;17.67;;;5.30;99.90;;;;;;5115275;28;20253;-70
2022/11/28 05:58:52;;;;;;;28.30;16.80;;;5.30;99.90;;;;;;5115230;28;20649;-67
2022/11/28 06:01:22;;;;;;;30.57;16.27;;;5.30;99.90;;;;;;5115358;28;20195;-71
2022/11/28 06:03:56;;;;;;;27.37;16.87;;;5.30;99.90;;;;;;5115644;28;20545;-70
2022/11/28 06:06:26;;;;;;;25.60;15.17;;;5.30;99.90;;;;;;5114972;28;20242;-66
2022/11/28 06:08:54;;;;;;;27.00;16.23;;;5.20;99.90;;;;;;5115479;28;20200;-70
2022/11/28 06:11:24;;;;;;;29.13;17.43;;;5.20;99.90;;;;;;5115059;28;20748;-67
2022/11/28 06:13:54;;;;;;;27.33;15.23;;;5.20;99.90;;;;;;5114891;28;20194;-67
2022/11/28 06:16:25;;;;;;;25.00;16.37;;;5.30;99.90;;;;;;5114683;28;20218;-66
2022/11/28 06:18:54;;;;;;;28.80;16.93;;;5.20;99.90;;;;;;5114941;28;20219;-66
2022/11/28 06:21:23;;;;;;;27.67;17.47;;;5.20;99.90;;;;;;5115107;28;20293;-71
2022/11/28 06:23:52;;;;;;;39.30;22.53;;;5.20;99.90;;;;;;5114842;28;20211;-69
2022/11/28 06:26:22;;;;;;;33.97;22.63;;;5.20;99.90;;;;;;5114621;28;20196;-70
2022/11/28 06:28:50;;;;;;;29.43;19.27;;;5.20;99.90;;;;;;5114420;28;20196;-67
2022/11/28 06:31:22;;;;;;;26.10;16.97;;;5.20;99.90;;;;;;5114666;28;20202;-70
2022/11/28 06:33:51;;;;;;;27.13;16.23;;;5.20;99.90;;;;;;5096128;28;20616;-70
2022/11/28 06:36:20;;;;;;;28.73;17.23;;;5.20;99.90;;;;;;5114338;28;20211;-67
2022/11/28 06:38:49;;;;;;;31.73;17.57;;;5.30;99.90;;;;;;5114585;28;20678;-67
2022/11/28 06:41:19;;;;;;;25.70;14.70;;;5.20;99.90;;;;;;5114594;28;20204;-66
2022/11/28 06:43:47;;;;;;;24.67;15.40;;;5.20;99.90;;;;;;5114372;28;20198;-70
2022/11/28 06:46:17;;;;;;;25.53;15.50;;;5.20;99.90;;;;;;5114668;28;20207;-66
2022/11/28 06:48:48;;;;;;;22.67;14.07;;;5.20;99.90;;;;;;5114405;28;20202;-68
2022/11/28 06:51:18;;;;;;;25.47;15.50;;;5.10;99.90;;;;;;5114415;28;20193;-72
2022/11/28 06:53:46;;;;;;;26.07;15.17;;;5.00;99.90;;;;;;5114252;28;20227;-70
2022/11/28 06:56:17;;;;;;;20.73;13.80;;;5.10;99.90;;;;;;5114242;28;20199;-68
2022/11/28 06:58:46;;;;;;;23.33;14.00;;;5.00;99.90;;;;;;5114144;28;20668;-70
2022/11/28 07:01:20;;;;;;;23.47;14.63;;;5.00;99.90;;;;;;5114364;28;20696;-68
2022/11/28 07:03:50;;;;;;;23.57;13.67;;;4.90;99.90;;;;;;5114034;28;20184;-70
2022/11/28 07:06:20;;;;;;;23.40;14.70;;;4.90;99.90;;;;;;5114035;28;20652;-71
2022/11/28 07:08:49;;;;;;;23.03;13.80;;;4.80;99.90;;;;;;5113927;28;20203;-71
2022/11/28 07:11:19;;;;;;;24.97;14.53;;;4.80;99.90;;;;;;5114087;28;20263;-70
2022/11/28 07:13:48;;;;;;;23.97;14.53;;;4.80;99.90;;;;;;5114188;28;20184;-70
2022/11/28 07:16:20;;;;;;;25.10;15.17;;;4.80;99.90;;;;;;5113838;28;20582;-69
2022/11/28 07:18:50;;;;;;;24.40;15.50;;;4.90;99.90;;;;;;5113975;28;20223;-67
2022/11/28 07:21:19;;;;;;;25.83;16.23;;;4.90;99.90;;;;;;5113783;28;20189;-70
2022/11/28 07:23:48;;;;;;;24.73;14.83;;;4.90;99.90;;;;;;5113792;28;20204;-71
2022/11/28 07:26:20;;;;;;;20.50;13.63;;;5.00;99.90;;;;;;5113919;28;20585;-71
2022/11/28 07:28:49;;;;;;;22.47;14.27;;;5.00;99.90;;;;;;5113567;28;20233;-70
2022/11/28 07:31:20;;;;;;;115.30;57.73;;;5.00;99.90;;;;;;5113497;28;20195;-72
2022/11/28 07:33:51;;;;;;;43.60;24.90;;;4.90;99.90;;;;;;5113492;28;20224;-69
2022/11/28 07:36:22;;;;;;;31.80;18.53;;;5.00;99.90;;;;;;5113513;28;20210;-72
2022/11/28 07:38:51;;;;;;;72.50;38.03;;;5.10;99.90;;;;;;5113343;28;20292;-71
2022/11/28 07:41:21;;;;;;;36.37;22.37;;;5.10;99.90;;;;;;5113343;28;20285;-70
2022/11/28 07:43:55;;;;;;;38.93;22.20;;;5.20;99.90;;;;;;5113289;28;20187;-72
2022/11/28 07:46:24;;;;;;;39.13;22.67;;;5.20;99.90;;;;;;5112162;28;20202;-71
2022/11/28 07:48:54;;;;;;;32.80;18.70;;;5.30;99.90;;;;;;5113127;28;20198;-71
2022/11/28 07:51:25;;;;;;;23.40;14.53;;;5.30;99.90;;;;;;5113022;28;20195;-70
2022/11/28 07:53:54;;;;;;;32.90;21.47;;;5.30;99.90;;;;;;5113202;28;20203;-70
2022/11/28 07:56:24;;;;;;;37.73;26.43;;;5.30;99.90;;;;;;5113482;28;20228;-70
2022/11/28 07:59:00;;;;;;;22.53;15.33;;;5.40;99.90;;;;;;5112980;28;20245;-70
2022/11/28 08:01:32;;;;;;;20.93;13.73;;;5.30;99.90;;;;;;5112628;28;20191;-70
2022/11/28 08:04:02;;;;;;;22.03;15.10;;;5.30;99.90;;;;;;5112720;28;20593;-69
2022/11/28 08:06:31;;;;;;;28.33;20.30;;;5.20;99.90;;;;;;5112720;28;20259;-70
2022/11/28 08:09:01;;;;;;;24.07;16.63;;;5.20;99.90;;;;;;5112855;28;20657;-66
2022/11/28 08:11:30;;;;;;;31.07;21.40;;;5.10;99.90;;;;;;5094532;28;20613;-65
2022/11/28 08:13:58;;;;;;;29.33;17.80;;;5.10;99.90;;;;;;5112720;28;20201;-68
2022/11/28 08:16:29;;;;;;;32.17;18.20;;;5.00;99.90;;;;;;5112762;28;20223;-66
2022/11/28 08:19:01;;;;;;;35.43;21.37;;;5.10;99.90;;;;;;5112715;28;20325;-70
2022/11/28 08:21:33;;;;;;;27.67;16.97;;;5.20;99.90;;;;;;5094380;28;20583;-66
2022/11/28 08:24:02;;;;;;;34.67;17.00;;;5.20;99.90;;;;;;5112677;28;20309;-66
2022/11/28 08:26:32;;;;;;;29.30;17.17;;;5.20;99.90;;;;;;5112473;28;20223;-67
2022/11/28 08:29:01;;;;;;;33.33;19.27;;;5.20;99.90;;;;;;5112483;28;20180;-67
2022/11/28 08:31:32;;;;;;;22.63;13.83;;;5.30;99.90;;;;;;5112623;28;20203;-66
2022/11/28 08:34:04;;;;;;;20.23;14.03;;;5.40;99.90;;;;;;5112590;28;20203;-69
2022/11/28 08:36:33;;;;;;;41.00;16.67;;;5.40;99.90;;;;;;5112584;28;20199;-70
2022/11/28 08:39:02;;;;;;;25.23;13.67;;;5.50;99.90;;;;;;5112315;28;20704;-66
2022/11/28 08:41:50;;;;;;;30.17;15.80;;;5.40;99.90;;;;;;5112205;28;20616;-67
2022/11/28 08:44:18;;;;;;;30.37;16.33;;;5.30;99.90;;;;;;5112259;28;20206;-66
2022/11/28 08:46:47;;;;;;;20.53;13.73;;;5.40;99.90;;;;;;5112255;28;20687;-69
2022/11/28 08:49:16;;;;;;;21.83;13.67;;;5.40;99.90;;;;;;5112452;28;20222;-67
2022/11/28 08:51:45;;;;;;;23.33;15.10;;;5.40;99.90;;;;;;5112234;28;20187;-71
2022/11/28 08:54:13;;;;;;;25.23;15.20;;;5.30;99.90;;;;;;5112451;28;20207;-68
2022/11/28 08:56:44;;;;;;;18.87;12.97;;;5.40;99.90;;;;;;5112420;28;20206;-66
2022/11/28 08:59:12;;;;;;;21.80;13.83;;;5.40;99.90;;;;;;5111620;28;20223;-66
2022/11/28 09:01:41;;;;;;;25.27;16.53;;;5.40;99.90;;;;;;5112233;28;20746;-69
2022/11/28 09:04:09;;;;;;;28.03;17.77;;;5.40;99.90;;;;;;5111845;28;20196;-67
2022/11/28 09:06:40;;;;;;;36.77;21.40;;;5.50;99.90;;;;;;5111731;28;20231;-71
2022/11/28 09:09:10;;;;;;;55.97;31.33;;;5.50;99.90;;;;;;5111336;28;20446;-70
2022/11/28 09:11:39;;;;;;;74.97;39.57;;;5.60;99.90;;;;;;5112055;28;20202;-67
2022/11/28 09:14:08;;;;;;;37.17;22.53;;;5.70;99.90;;;;;;5112080;28;20195;-67
2022/11/28 09:16:38;;;;;;;31.13;18.90;;;5.70;99.90;;;;;;5111857;28;20675;-71
2022/11/28 09:19:08;;;;;;;25.27;17.50;;;5.70;99.90;;;;;;5111791;28;20251;-71
2022/11/28 09:21:36;;;;;;;29.37;16.80;;;5.70;99.90;;;;;;5112024;28;20206;-67
2022/11/28 09:24:08;;;;;;;29.57;18.07;;;5.70;99.90;;;;;;5112111;28;20208;-68
2022/11/28 09:26:36;;;;;;;27.37;16.93;;;5.60;99.90;;;;;;5111910;28;20217;-68
2022/11/28 09:29:04;;;;;;;26.70;17.87;;;5.50;99.90;;;;;;5111997;28;20196;-69
2022/11/28 09:31:36;;;;;;;28.13;17.13;;;5.60;99.90;;;;;;5111807;28;20204;-68
2022/11/28 09:34:04;;;;;;;21.77;15.00;;;5.70;99.90;;;;;;5111888;28;20195;-68
2022/11/28 09:36:32;;;;;;;24.47;15.00;;;5.80;99.90;;;;;;5111878;28;20203;-68
2022/11/28 09:39:01;;;;;;;30.63;19.10;;;5.80;99.90;;;;;;5111604;28;20689;-67
2022/11/28 09:41:43;;;;;;;31.40;19.53;;;5.80;99.90;;;;;;5111708;28;20570;-68
2022/11/28 09:44:20;;;;;;;28.00;17.63;;;5.80;99.90;;;;;;5111903;28;20192;-68
2022/11/28 09:46:52;;;;;;;28.07;16.33;;;5.80;99.90;;;;;;5111629;28;20206;-70
2022/11/28 09:49:33;;;;;;;24.77;16.30;;;5.80;99.90;;;;;;5111775;28;20209;-68
2022/11/28 09:52:21;;;;;;;31.47;18.07;;;5.80;99.90;;;;;;5111510;28;20685;-67
2022/11/28 09:54:57;;;;;;;28.67;17.27;;;5.80;99.90;;;;;;5093374;28;20572;-69
2022/11/28 09:57:34;;;;;;;25.57;16.20;;;5.90;99.90;;;;;;5111741;28;20260;-66
2022/11/28 10:00:04;;;;;;;23.57;16.23;;;6.00;99.90;;;;;;5111461;28;20275;-68
2022/11/28 10:02:50;;;;;;;28.20;17.27;;;5.80;99.90;;;;;;5111543;28;20273;-68
2022/11/28 10:05:24;;;;;;;24.77;15.70;;;5.90;99.90;;;;;;5111177;28;20199;-66
2022/11/28 10:08:10;;;;;;;32.13;18.83;;;5.90;99.90;;;;;;5111527;28;20203;-67
2022/11/28 10:10:47;;;;;;;34.90;22.53;;;6.00;99.90;;;;;;5113932;28;20192;-65
2022/11/28 10:13:23;;;;;;;26.47;17.83;;;6.10;99.90;;;;;;5115449;28;20203;-66
2022/11/28 10:16:05;;;;;;;26.77;18.47;;;6.30;99.90;;;;;;5115137;28;20687;-66
2022/11/28 10:18:43;;;;;;;28.87;19.93;;;6.40;99.90;;;;;;5115116;28;20696;-67
2022/11/28 10:21:23;;;;;;;26.47;17.13;;;6.50;99.90;;;;;;5115381;28;20234;-66
2022/11/28 10:23:57;;;;;;;29.03;18.63;;;6.40;99.90;;;;;;5115014;28;20210;-65
2022/11/28 10:26:32;;;;;;;34.20;20.77;;;6.40;99.90;;;;;;5115009;28;20213;-66
2022/11/28 10:29:10;;;;;;;39.87;25.50;;;6.30;99.90;;;;;;5114868;28;20191;-66
2022/11/28 10:31:42;;;;;;;46.97;28.43;;;6.30;99.90;;;;;;5114723;28;20297;-70
2022/11/28 10:34:17;;;;;;;33.70;22.13;;;6.30;99.90;;;;;;5114898;28;20463;-66
2022/11/28 10:36:54;;;;;;;27.30;19.60;;;6.40;99.90;;;;;;5115202;28;20208;-66
2022/11/28 10:39:25;;;;;;;27.30;17.60;;;6.40;99.90;;;;;;5114734;28;20223;-65
2022/11/28 10:42:13;;;;;;;23.47;16.73;;;6.40;99.90;;;;;;5114729;28;20225;-69
2022/11/28 10:45:02;;;;;;;21.53;15.17;;;6.50;99.90;;;;;;5114686;28;20669;-66
2022/11/28 10:48:04;;;;;;;116.20;68.67;;;6.50;99.90;;;;;;5114512;28;20566;-66
2022/11/28 10:51:02;;;;;;;24.27;16.70;;;6.60;99.90;;;;;;5011890;28;20207;-70
2022/11/28 10:53:43;;;;;;;20.73;14.83;;;6.80;99.90;;;;;;5012078;28;20272;-70
2022/11/28 10:56:23;;;;;;;23.33;16.53;;;6.70;99.90;;;;;;5011963;28;20214;-71
2022/11/28 10:58:57;;;;;;;23.07;16.10;;;6.70;99.90;;;;;;5011804;28;20264;-66
2022/11/28 11:01:31;;;;;;;18.23;13.93;;;6.60;99.90;;;;;;5011796;28;20285;-70
2022/11/28 11:03:59;;;;;;;24.60;15.33;;;6.50;99.90;;;;;;5011724;28;20233;-66
2022/11/28 11:06:28;;;;;;;64.90;25.83;;;6.50;99.90;;;;;;5011324;28;21370;-70
2022/11/28 11:09:09;;;;;;;72.73;32.57;;;6.40;99.90;;;;;;5011673;28;20211;-67
2022/11/28 11:11:48;;;;;;;48.50;25.57;;;6.30;99.90;;;;;;5011778;28;20620;-71
2022/11/28 11:14:32;;;;;;;42.03;26.67;;;6.30;99.90;;;;;;5011559;28;20509;-67
2022/11/28 11:17:02;;;;;;;21.13;14.50;;;6.20;99.90;;;;;;5011402;28;20206;-68
2022/11/28 11:19:32;;;;;;;20.23;14.37;;;6.20;99.90;;;;;;5011436;28;20237;-66
2022/11/28 11:22:04;;;;;;;21.67;13.33;;;5.90;99.90;;;;;;5011145;28;20218;-66
2022/11/28 11:24:33;;;;;;;28.10;15.73;;;5.80;99.90;;;;;;5011429;28;20744;-67
2022/11/28 11:27:07;;;;;;;26.07;19.33;;;5.80;99.90;;;;;;5030080;28;20204;-68
2022/11/28 11:29:37;;;;;;;32.73;22.60;;;6.00;99.90;;;;;;5113775;28;20194;-69
2022/11/28 11:32:20;;;;;;;23.57;16.53;;;6.10;99.90;;;;;;5094812;28;20202;-70
2022/11/28 11:34:49;;;;;;;34.43;17.27;;;6.20;99.90;;;;;;5113704;28;20200;-67
2022/11/28 11:37:20;;;;;;;23.83;15.17;;;6.20;99.90;;;;;;5113502;28;20195;-67
2022/11/28 11:39:51;;;;;;;30.73;19.87;;;6.10;99.90;;;;;;5113496;28;20212;-68
2022/11/28 11:42:21;;;;;;;42.73;26.93;;;6.20;99.90;;;;;;5113554;28;20210;-68
2022/11/28 11:44:50;;;;;;;61.07;34.83;;;6.20;99.90;;;;;;5113610;28;20200;-69
2022/11/28 11:47:39;;;;;;;61.07;36.83;;;6.20;99.90;;;;;;5113144;28;20301;-68
2022/11/28 11:50:15;;;;;;;80.00;44.13;;;6.30;99.90;;;;;;5113439;28;20202;-70
2022/11/28 11:52:43;;;;;;;89.93;50.97;;;6.30;99.90;;;;;;5113290;28;20203;-68
2022/11/28 11:55:15;;;;;;;37.47;23.43;;;6.40;99.90;;;;;;5113460;28;20207;-68
2022/11/28 11:57:49;;;;;;;39.10;22.57;;;6.40;99.90;;;;;;5113321;28;20195;-67
2022/11/28 12:00:21;;;;;;;76.90;37.43;;;6.40;99.90;;;;;;5113154;28;20599;-68
2022/11/28 12:02:54;;;;;;;37.77;24.93;;;6.40;99.90;;;;;;5113040;28;20207;-68
2022/11/28 12:05:27;;;;;;;42.30;24.07;;;6.50;99.90;;;;;;5112888;28;20195;-68
2022/11/28 12:07:59;;;;;;;28.33;19.07;;;6.50;99.90;;;;;;5113201;28;20199;-71
2022/11/28 12:10:30;;;;;;;24.50;17.27;;;6.50;99.90;;;;;;5112994;28;20633;-70
2022/11/28 12:12:58;;;;;;;39.97;25.63;;;6.50;99.90;;;;;;5112968;28;20733;-71
2022/11/28 12:15:36;;;;;;;37.40;25.77;;;6.40;99.90;;;;;;5112812;28;20599;-69
2022/11/28 12:18:20;;;;;;;32.03;22.07;;;6.40;99.90;;;;;;5112980;28;20195;-68
2022/11/28 12:21:09;;;;;;;34.40;22.73;;;6.40;99.90;;;;;;5112846;28;20719;-68
2022/11/28 12:23:54;;;;;;;60.63;37.63;;;6.40;99.90;;;;;;5112863;28;20192;-69
2022/11/28 12:26:28;;;;;;;26.17;18.13;;;6.40;99.90;;;;;;5112789;28;20286;-70
2022/11/28 12:29:12;;;;;;;24.40;16.33;;;6.40;99.90;;;;;;5112689;28;20202;-70
2022/11/28 12:31:48;;;;;;;27.70;19.20;;;6.40;99.90;;;;;;5112346;28;20199;-72
2022/11/28 12:34:28;;;;;;;30.97;17.33;;;6.30;99.90;;;;;;5112505;28;20245;-71
2022/11/28 12:37:06;;;;;;;25.30;16.57;;;6.20;99.90;;;;;;5112689;28;20210;-72
2022/11/28 12:39:45;;;;;;;25.50;16.23;;;6.20;99.90;;;;;;5112415;28;20257;-68
2022/11/28 12:42:33;;;;;;;27.27;17.27;;;6.20;99.90;;;;;;5112608;28;20199;-67
2022/11/28 12:45:28;;;;;;;26.27;16.73;;;6.30;99.90;;;;;;5112364;28;20195;-73
2022/11/28 12:48:10;;;;;;;27.73;18.20;;;6.30;99.90;;;;;;5112360;28;20195;-70
2022/11/28 12:50:42;;;;;;;33.67;21.77;;;6.30;99.90;;;;;;5112302;28;20207;-69
2022/11/28 12:53:39;;;;;;;21.17;13.13;;;6.30;99.90;;;;;;5112304;28;20199;-68
2022/11/28 12:56:21;;;;;;;23.77;14.87;;;6.20;99.90;;;;;;5112280;28;20628;-68
2022/11/28 12:58:57;;;;;;;26.10;18.93;;;6.10;99.90;;;;;;5112297;28;20224;-71
2022/11/28 13:01:40;;;;;;;58.33;41.17;;;6.20;99.90;;;;;;5111998;28;20222;-68
2022/11/28 13:04:27;;;;;;;54.67;40.53;;;6.20;99.90;;;;;;5112097;28;20196;-67
2022/11/28 13:07:03;;;;;;;45.80;33.30;;;6.20;99.90;;;;;;5093433;28;20239;-71